sensor_id;sensor_type;location;lat;lon;timestamp;temperature;humidity
52495;DHT22;38405;53.212;5.660;2023-04-07T00:00:40;7.20;99.90
52495;DHT22;38405;53.212;5.660;2023-04-07T00:03:06;7.40;99.90
52495;DHT22;38405;53.212;5.660;2023-04-07T00:05:33;7.20;99.90
52495;DHT22;38405;53.212;5.660;2023-04-07T00:07:58;7.20;99.90
52495;DHT22;38405;53.212;5.660;2023-04-07T00:10:24;7.20;99.90
52495;DHT22;38405;53.212;5.660;2023-04-07T00:12:50;7.20;99.90
52495;DHT22;38405;53.212;5.660;2023-04-07T00:15:16;7.20;99.90
52495;DHT22;38405;53.212;5.660;2023-04-07T00:17:42;7.20;99.90
52495;DHT22;38405;53.212;5.660;2023-04-07T00:20:08;7.30;99.90
52495;DHT22;38405;53.212;5.660;2023-04-07T00:22:33;7.30;99.90
52495;DHT22;38405;53.212;5.660;2023-04-07T00:24:59;7.20;99.90
52495;DHT22;38405;53.212;5.660;2023-04-07T00:27:25;7.20;99.90
52495;DHT22;38405;53.212;5.660;2023-04-07T00:29:50;7.20;99.90
52495;DHT22;38405;53.212;5.660;2023-04-07T00:32:19;7.20;99.90
52495;DHT22;38405;53.212;5.660;2023-04-07T00:34:44;7.20;99.90
52495;DHT22;38405;53.212;5.660;2023-04-07T00:37:10;7.20;99.90
52495;DHT22;38405;53.212;5.660;2023-04-07T00:39:36;7.30;99.90
52495;DHT22;38405;53.212;5.660;2023-04-07T00:42:03;7.20;99.90
52495;DHT22;38405;53.212;5.660;2023-04-07T00:44:29;7.30;99.90
52495;DHT22;38405;53.212;5.660;2023-04-07T00:46:55;7.40;99.90
52495;DHT22;38405;53.212;5.660;2023-04-07T00:49:21;7.30;99.90
52495;DHT22;38405;53.212;5.660;2023-04-07T00:51:47;7.50;99.90
52495;DHT22;38405;53.212;5.660;2023-04-07T00:54:12;7.30;99.90
52495;DHT22;38405;53.212;5.660;2023-04-07T00:56:39;7.40;99.90
52495;DHT22;38405;53.212;5.660;2023-04-07T00:59:04;7.30;99.90
52495;DHT22;38405;53.212;5.660;2023-04-07T01:01:36;7.30;99.90
52495;DHT22;38405;53.212;5.660;2023-04-07T01:04:08;7.40;99.90
52495;DHT22;38405;53.212;5.660;2023-04-07T01:06:41;7.50;99.90
52495;DHT22;38405;53.212;5.660;2023-04-07T01:09:17;7.40;99.90
52495;DHT22;38405;53.212;5.660;2023-04-07T01:12:09;7.40;99.90
52495;DHT22;38405;53.212;5.660;2023-04-07T01:14:44;7.40;99.90
52495;DHT22;38405;53.212;5.660;2023-04-07T01:17:11;7.40;99.90
52495;DHT22;38405;53.212;5.660;2023-04-07T01:19:52;7.40;99.90
52495;DHT22;38405;53.212;5.660;2023-04-07T01:22:24;7.50;99.90
52495;DHT22;38405;53.212;5.660;2023-04-07T01:30:12;7.50;99.90
52495;DHT22;38405;53.212;5.660;2023-04-07T01:32:39;7.50;99.90
52495;DHT22;38405;53.212;5.660;2023-04-07T01:35:09;7.40;99.90
52495;DHT22;38405;53.212;5.660;2023-04-07T01:37:36;7.50;99.90
52495;DHT22;38405;53.212;5.660;2023-04-07T01:40:07;7.50;99.90
52495;DHT22;38405;53.212;5.660;2023-04-07T01:42:34;7.50;99.90
52495;DHT22;38405;53.212;5.660;2023-04-07T01:45:01;7.50;99.90
52495;DHT22;38405;53.212;5.660;2023-04-07T01:47:28;7.60;99.90
52495;DHT22;38405;53.212;5.660;2023-04-07T01:49:57;7.60;99.90
52495;DHT22;38405;53.212;5.660;2023-04-07T01:52:25;7.60;99.90
52495;DHT22;38405;53.212;5.660;2023-04-07T01:54:52;7.70;99.90
52495;DHT22;38405;53.212;5.660;2023-04-07T01:57:18;7.60;99.90
52495;DHT22;38405;53.212;5.660;2023-04-07T01:59:44;7.90;99.90
52495;DHT22;38405;53.212;5.660;2023-04-07T02:02:10;7.60;99.90
52495;DHT22;38405;53.212;5.660;2023-04-07T02:04:42;7.80;99.90
52495;DHT22;38405;53.212;5.660;2023-04-07T02:07:34;7.70;99.90
52495;DHT22;38405;53.212;5.660;2023-04-07T02:10:05;7.70;99.90
52495;DHT22;38405;53.212;5.660;2023-04-07T02:12:35;7.70;99.90
52495;DHT22;38405;53.212;5.660;2023-04-07T02:15:03;7.90;99.90
52495;DHT22;38405;53.212;5.660;2023-04-07T02:17:31;7.80;99.90
52495;DHT22;38405;53.212;5.660;2023-04-07T02:19:58;7.80;99.90
52495;DHT22;38405;53.212;5.660;2023-04-07T02:22:26;7.80;99.90
52495;DHT22;38405;53.212;5.660;2023-04-07T02:24:51;7.80;99.90
52495;DHT22;38405;53.212;5.660;2023-04-07T02:27:17;7.80;99.90
52495;DHT22;38405;53.212;5.660;2023-04-07T02:29:44;7.90;99.90
52495;DHT22;38405;53.212;5.660;2023-04-07T02:32:10;7.80;99.90
52495;DHT22;38405;53.212;5.660;2023-04-07T02:34:36;7.90;99.90
52495;DHT22;38405;53.212;5.660;2023-04-07T02:37:01;7.90;99.90
52495;DHT22;38405;53.212;5.660;2023-04-07T02:39:27;7.80;99.90
52495;DHT22;38405;53.212;5.660;2023-04-07T02:41:52;7.90;99.90
52495;DHT22;38405;53.212;5.660;2023-04-07T02:44:18;7.80;99.90
52495;DHT22;38405;53.212;5.660;2023-04-07T02:46:43;7.90;99.90
52495;DHT22;38405;53.212;5.660;2023-04-07T02:49:09;8.00;99.90
52495;DHT22;38405;53.212;5.660;2023-04-07T02:51:35;7.90;99.90
52495;DHT22;38405;53.212;5.660;2023-04-07T02:54:00;7.90;99.90
52495;DHT22;38405;53.212;5.660;2023-04-07T02:56:26;7.90;99.90
52495;DHT22;38405;53.212;5.660;2023-04-07T02:58:52;7.90;99.90
52495;DHT22;38405;53.212;5.660;2023-04-07T03:01:17;7.90;99.90
52495;DHT22;38405;53.212;5.660;2023-04-07T03:03:43;7.90;99.90
52495;DHT22;38405;53.212;5.660;2023-04-07T03:06:09;7.90;99.90
52495;DHT22;38405;53.212;5.660;2023-04-07T03:08:35;7.90;99.90
52495;DHT22;38405;53.212;5.660;2023-04-07T03:11:00;7.90;99.90
52495;DHT22;38405;53.212;5.660;2023-04-07T03:13:26;7.90;99.90
52495;DHT22;38405;53.212;5.660;2023-04-07T03:15:52;7.90;99.90
52495;DHT22;38405;53.212;5.660;2023-04-07T03:18:17;7.90;99.90
52495;DHT22;38405;53.212;5.660;2023-04-07T03:20:43;7.90;99.90
52495;DHT22;38405;53.212;5.660;2023-04-07T03:23:10;7.90;99.90
52495;DHT22;38405;53.212;5.660;2023-04-07T03:25:35;7.80;99.90
52495;DHT22;38405;53.212;5.660;2023-04-07T03:28:01;7.90;99.90
52495;DHT22;38405;53.212;5.660;2023-04-07T03:30:27;7.90;99.90
52495;DHT22;38405;53.212;5.660;2023-04-07T03:32:52;7.90;99.90
52495;DHT22;38405;53.212;5.660;2023-04-07T03:35:18;7.90;99.90
52495;DHT22;38405;53.212;5.660;2023-04-07T03:37:44;7.90;99.90
52495;DHT22;38405;53.212;5.660;2023-04-07T03:40:10;7.90;99.90
52495;DHT22;38405;53.212;5.660;2023-04-07T03:42:36;7.90;99.90
52495;DHT22;38405;53.212;5.660;2023-04-07T03:45:01;7.90;99.90
52495;DHT22;38405;53.212;5.660;2023-04-07T03:47:27;7.90;99.90
52495;DHT22;38405;53.212;5.660;2023-04-07T03:49:52;7.90;99.90
52495;DHT22;38405;53.212;5.660;2023-04-07T03:52:18;8.00;99.90
52495;DHT22;38405;53.212;5.660;2023-04-07T03:54:43;7.90;99.90
52495;DHT22;38405;53.212;5.660;2023-04-07T03:57:09;7.90;99.90
52495;DHT22;38405;53.212;5.660;2023-04-07T03:59:35;7.80;99.90
52495;DHT22;38405;53.212;5.660;2023-04-07T04:02:01;7.90;99.90
52495;DHT22;38405;53.212;5.660;2023-04-07T04:04:26;7.90;99.90
52495;DHT22;38405;53.212;5.660;2023-04-07T04:06:52;7.90;99.90
52495;DHT22;38405;53.212;5.660;2023-04-07T04:09:17;7.90;99.90
52495;DHT22;38405;53.212;5.660;2023-04-07T04:11:43;7.90;99.90
52495;DHT22;38405;53.212;5.660;2023-04-07T04:14:09;7.80;99.90
52495;DHT22;38405;53.212;5.660;2023-04-07T04:16:34;7.90;99.90
52495;DHT22;38405;53.212;5.660;2023-04-07T04:19:00;7.90;99.90
52495;DHT22;38405;53.212;5.660;2023-04-07T04:21:26;7.90;99.90
52495;DHT22;38405;53.212;5.660;2023-04-07T04:23:52;7.90;99.90
52495;DHT22;38405;53.212;5.660;2023-04-07T04:26:18;7.90;99.90
52495;DHT22;38405;53.212;5.660;2023-04-07T04:28:43;8.00;99.90
52495;DHT22;38405;53.212;5.660;2023-04-07T04:31:09;7.90;99.90
52495;DHT22;38405;53.212;5.660;2023-04-07T04:33:35;7.90;99.90
52495;DHT22;38405;53.212;5.660;2023-04-07T04:36:00;7.90;99.90
52495;DHT22;38405;53.212;5.660;2023-04-07T04:38:26;7.90;99.90
52495;DHT22;38405;53.212;5.660;2023-04-07T04:40:52;7.90;99.90
52495;DHT22;38405;53.212;5.660;2023-04-07T04:43:17;7.90;99.90
52495;DHT22;38405;53.212;5.660;2023-04-07T04:45:43;7.90;99.90
52495;DHT22;38405;53.212;5.660;2023-04-07T04:48:09;7.90;99.90
52495;DHT22;38405;53.212;5.660;2023-04-07T04:50:35;8.00;99.90
52495;DHT22;38405;53.212;5.660;2023-04-07T04:53:01;7.90;99.90
52495;DHT22;38405;53.212;5.660;2023-04-07T04:55:27;8.10;99.90
52495;DHT22;38405;53.212;5.660;2023-04-07T04:57:53;7.90;99.90
52495;DHT22;38405;53.212;5.660;2023-04-07T05:00:19;7.90;99.90
52495;DHT22;38405;53.212;5.660;2023-04-07T05:02:45;7.90;99.90
52495;DHT22;38405;53.212;5.660;2023-04-07T05:05:11;7.90;99.90
52495;DHT22;38405;53.212;5.660;2023-04-07T05:07:37;7.90;99.90
52495;DHT22;38405;53.212;5.660;2023-04-07T05:10:05;7.90;99.90
52495;DHT22;38405;53.212;5.660;2023-04-07T05:12:31;7.90;99.90
52495;DHT22;38405;53.212;5.660;2023-04-07T05:14:57;7.80;99.90
52495;DHT22;38405;53.212;5.660;2023-04-07T05:17:22;7.80;99.90
52495;DHT22;38405;53.212;5.660;2023-04-07T05:19:48;8.00;99.90
52495;DHT22;38405;53.212;5.660;2023-04-07T05:22:14;7.80;99.90
52495;DHT22;38405;53.212;5.660;2023-04-07T05:24:40;7.80;99.90
52495;DHT22;38405;53.212;5.660;2023-04-07T05:27:05;7.80;99.90
52495;DHT22;38405;53.212;5.660;2023-04-07T05:29:31;7.80;99.90
52495;DHT22;38405;53.212;5.660;2023-04-07T05:31:56;7.70;99.90
52495;DHT22;38405;53.212;5.660;2023-04-07T05:34:22;7.80;99.90
52495;DHT22;38405;53.212;5.660;2023-04-07T05:36:47;7.70;99.90
52495;DHT22;38405;53.212;5.660;2023-04-07T05:39:13;7.70;99.90
52495;DHT22;38405;53.212;5.660;2023-04-07T05:41:39;7.80;99.90
52495;DHT22;38405;53.212;5.660;2023-04-07T05:44:04;7.70;99.90
52495;DHT22;38405;53.212;5.660;2023-04-07T05:46:31;7.70;99.90
52495;DHT22;38405;53.212;5.660;2023-04-07T05:48:56;7.70;99.90
52495;DHT22;38405;53.212;5.660;2023-04-07T05:51:22;7.70;99.90
52495;DHT22;38405;53.212;5.660;2023-04-07T05:53:47;7.70;99.90
52495;DHT22;38405;53.212;5.660;2023-04-07T05:56:13;7.70;99.90
52495;DHT22;38405;53.212;5.660;2023-04-07T05:58:39;7.70;99.90
52495;DHT22;38405;53.212;5.660;2023-04-07T06:01:04;7.80;99.90
52495;DHT22;38405;53.212;5.660;2023-04-07T06:03:30;7.70;99.90
52495;DHT22;38405;53.212;5.660;2023-04-07T06:05:56;7.80;99.90
52495;DHT22;38405;53.212;5.660;2023-04-07T06:08:22;7.70;99.90
52495;DHT22;38405;53.212;5.660;2023-04-07T06:10:51;7.70;99.90
52495;DHT22;38405;53.212;5.660;2023-04-07T06:13:17;7.70;99.90
52495;DHT22;38405;53.212;5.660;2023-04-07T06:15:42;7.70;99.90
52495;DHT22;38405;53.212;5.660;2023-04-07T06:18:08;7.70;99.90
52495;DHT22;38405;53.212;5.660;2023-04-07T06:20:34;7.70;99.90
52495;DHT22;38405;53.212;5.660;2023-04-07T06:23:00;7.70;99.90
52495;DHT22;38405;53.212;5.660;2023-04-07T06:25:26;7.70;99.90
52495;DHT22;38405;53.212;5.660;2023-04-07T06:27:52;7.70;99.90
52495;DHT22;38405;53.212;5.660;2023-04-07T06:30:18;7.70;99.90
52495;DHT22;38405;53.212;5.660;2023-04-07T06:32:44;7.70;99.90
52495;DHT22;38405;53.212;5.660;2023-04-07T06:35:09;7.70;99.90
52495;DHT22;38405;53.212;5.660;2023-04-07T06:37:35;7.70;99.90
52495;DHT22;38405;53.212;5.660;2023-04-07T06:40:01;7.80;99.90
52495;DHT22;38405;53.212;5.660;2023-04-07T06:42:27;7.70;99.90
52495;DHT22;38405;53.212;5.660;2023-04-07T06:44:52;7.80;99.90
52495;DHT22;38405;53.212;5.660;2023-04-07T06:47:18;7.70;99.90
52495;DHT22;38405;53.212;5.660;2023-04-07T06:49:43;7.70;99.90
52495;DHT22;38405;53.212;5.660;2023-04-07T06:52:09;7.70;99.90
52495;DHT22;38405;53.212;5.660;2023-04-07T06:54:34;7.70;99.90
52495;DHT22;38405;53.212;5.660;2023-04-07T06:57:00;7.70;99.90
52495;DHT22;38405;53.212;5.660;2023-04-07T06:59:26;7.70;99.90
52495;DHT22;38405;53.212;5.660;2023-04-07T07:01:52;7.80;99.90
52495;DHT22;38405;53.212;5.660;2023-04-07T07:04:17;7.70;99.90
52495;DHT22;38405;53.212;5.660;2023-04-07T07:06:43;7.70;99.90
52495;DHT22;38405;53.212;5.660;2023-04-07T07:09:11;7.80;99.90
52495;DHT22;38405;53.212;5.660;2023-04-07T07:11:37;7.80;99.90
52495;DHT22;38405;53.212;5.660;2023-04-07T07:14:04;7.80;99.90
52495;DHT22;38405;53.212;5.660;2023-04-07T07:16:30;7.90;99.90
52495;DHT22;38405;53.212;5.660;2023-04-07T07:18:55;7.80;99.90
52495;DHT22;38405;53.212;5.660;2023-04-07T07:21:21;7.80;99.90
52495;DHT22;38405;53.212;5.660;2023-04-07T07:23:47;7.80;99.90
52495;DHT22;38405;53.212;5.660;2023-04-07T07:26:12;7.90;99.90
52495;DHT22;38405;53.212;5.660;2023-04-07T07:28:38;8.00;99.90
52495;DHT22;38405;53.212;5.660;2023-04-07T07:31:10;8.00;99.90
52495;DHT22;38405;53.212;5.660;2023-04-07T07:33:40;8.10;99.90
52495;DHT22;38405;53.212;5.660;2023-04-07T07:36:11;8.10;99.90
52495;DHT22;38405;53.212;5.660;2023-04-07T07:38:37;8.10;99.90
52495;DHT22;38405;53.212;5.660;2023-04-07T07:41:03;8.10;99.90
52495;DHT22;38405;53.212;5.660;2023-04-07T07:43:33;8.20;99.90
52495;DHT22;38405;53.212;5.660;2023-04-07T07:45:59;8.10;99.90
52495;DHT22;38405;53.212;5.660;2023-04-07T07:48:25;8.20;99.90
52495;DHT22;38405;53.212;5.660;2023-04-07T07:50:54;8.10;99.90
52495;DHT22;38405;53.212;5.660;2023-04-07T07:53:22;8.20;99.90
52495;DHT22;38405;53.212;5.660;2023-04-07T07:55:48;8.10;99.90
52495;DHT22;38405;53.212;5.660;2023-04-07T07:58:14;8.10;99.90
52495;DHT22;38405;53.212;5.660;2023-04-07T08:00:40;8.10;99.90
52495;DHT22;38405;53.212;5.660;2023-04-07T08:03:05;8.10;99.90
52495;DHT22;38405;53.212;5.660;2023-04-07T08:05:31;8.10;99.90
52495;DHT22;38405;53.212;5.660;2023-04-07T08:07:57;8.10;99.90
52495;DHT22;38405;53.212;5.660;2023-04-07T08:10:22;8.10;99.90
52495;DHT22;38405;53.212;5.660;2023-04-07T08:12:50;8.20;99.90
52495;DHT22;38405;53.212;5.660;2023-04-07T08:15:15;8.20;99.90
52495;DHT22;38405;53.212;5.660;2023-04-07T08:17:41;8.20;99.90
52495;DHT22;38405;53.212;5.660;2023-04-07T08:20:10;8.10;99.90
52495;DHT22;38405;53.212;5.660;2023-04-07T08:22:36;8.10;99.90
52495;DHT22;38405;53.212;5.660;2023-04-07T08:25:02;8.10;99.90
52495;DHT22;38405;53.212;5.660;2023-04-07T08:27:27;8.10;99.90
52495;DHT22;38405;53.212;5.660;2023-04-07T08:30:01;8.10;99.90
52495;DHT22;38405;53.212;5.660;2023-04-07T08:32:42;8.20;99.90
52495;DHT22;38405;53.212;5.660;2023-04-07T08:35:08;8.10;99.90
52495;DHT22;38405;53.212;5.660;2023-04-07T08:37:34;8.10;99.90
52495;DHT22;38405;53.212;5.660;2023-04-07T08:40:01;8.10;99.90
52495;DHT22;38405;53.212;5.660;2023-04-07T08:42:30;8.10;99.90
52495;DHT22;38405;53.212;5.660;2023-04-07T08:44:59;8.20;99.90
52495;DHT22;38405;53.212;5.660;2023-04-07T08:47:27;8.20;99.90
52495;DHT22;38405;53.212;5.660;2023-04-07T08:49:56;8.20;99.90
52495;DHT22;38405;53.212;5.660;2023-04-07T08:52:33;8.10;99.90
52495;DHT22;38405;53.212;5.660;2023-04-07T08:55:00;8.20;99.90
52495;DHT22;38405;53.212;5.660;2023-04-07T08:57:31;8.20;99.90
52495;DHT22;38405;53.212;5.660;2023-04-07T09:00:04;8.20;99.90
52495;DHT22;38405;53.212;5.660;2023-04-07T09:02:37;8.20;99.90
52495;DHT22;38405;53.212;5.660;2023-04-07T09:05:07;8.20;99.90
52495;DHT22;38405;53.212;5.660;2023-04-07T09:07:34;8.30;99.90
52495;DHT22;38405;53.212;5.660;2023-04-07T09:10:00;8.30;99.90
52495;DHT22;38405;53.212;5.660;2023-04-07T09:12:27;8.30;99.90
52495;DHT22;38405;53.212;5.660;2023-04-07T09:14:53;8.20;99.90
52495;DHT22;38405;53.212;5.660;2023-04-07T09:17:19;8.30;99.90
52495;DHT22;38405;53.212;5.660;2023-04-07T09:19:46;8.30;99.90
52495;DHT22;38405;53.212;5.660;2023-04-07T09:22:12;8.30;99.90
52495;DHT22;38405;53.212;5.660;2023-04-07T09:24:40;8.30;99.90
52495;DHT22;38405;53.212;5.660;2023-04-07T09:27:13;8.30;99.90
52495;DHT22;38405;53.212;5.660;2023-04-07T09:29:41;8.30;99.90
52495;DHT22;38405;53.212;5.660;2023-04-07T09:32:07;8.40;99.90
52495;DHT22;38405;53.212;5.660;2023-04-07T09:34:38;8.50;99.90
52495;DHT22;38405;53.212;5.660;2023-04-07T09:37:06;8.60;99.90
52495;DHT22;38405;53.212;5.660;2023-04-07T09:39:32;8.60;99.90
52495;DHT22;38405;53.212;5.660;2023-04-07T09:41:58;8.60;99.90
52495;DHT22;38405;53.212;5.660;2023-04-07T09:44:38;8.60;99.90
52495;DHT22;38405;53.212;5.660;2023-04-07T09:47:04;8.70;99.90
52495;DHT22;38405;53.212;5.660;2023-04-07T09:49:30;8.80;99.90
52495;DHT22;38405;53.212;5.660;2023-04-07T09:51:57;8.90;99.90
52495;DHT22;38405;53.212;5.660;2023-04-07T09:54:53;8.90;99.90
52495;DHT22;38405;53.212;5.660;2023-04-07T09:57:20;9.00;99.90
52495;DHT22;38405;53.212;5.660;2023-04-07T09:59:47;9.00;99.90
52495;DHT22;38405;53.212;5.660;2023-04-07T10:02:14;9.20;99.90
52495;DHT22;38405;53.212;5.660;2023-04-07T10:04:40;9.20;99.90
52495;DHT22;38405;53.212;5.660;2023-04-07T10:07:06;9.30;99.90
52495;DHT22;38405;53.212;5.660;2023-04-07T10:09:32;9.30;99.90
52495;DHT22;38405;53.212;5.660;2023-04-07T10:11:58;9.30;99.90
52495;DHT22;38405;53.212;5.660;2023-04-07T10:14:31;9.40;99.90
52495;DHT22;38405;53.212;5.660;2023-04-07T10:16:59;9.40;99.90
52495;DHT22;38405;53.212;5.660;2023-04-07T10:19:24;9.50;99.90
52495;DHT22;38405;53.212;5.660;2023-04-07T10:21:54;9.60;99.90
52495;DHT22;38405;53.212;5.660;2023-04-07T10:27:10;9.80;99.90
52495;DHT22;38405;53.212;5.660;2023-04-07T10:29:41;10.00;99.90
52495;DHT22;38405;53.212;5.660;2023-04-07T10:32:08;10.00;99.90
52495;DHT22;38405;53.212;5.660;2023-04-07T10:37:18;10.30;99.90
52495;DHT22;38405;53.212;5.660;2023-04-07T10:39:48;10.40;99.90
52495;DHT22;38405;53.212;5.660;2023-04-07T10:45:02;10.30;99.90
52495;DHT22;38405;53.212;5.660;2023-04-07T10:47:29;10.20;99.90
52495;DHT22;38405;53.212;5.660;2023-04-07T10:52:48;10.20;99.90
52495;DHT22;38405;53.212;5.660;2023-04-07T11:03:23;10.20;99.90
52495;DHT22;38405;53.212;5.660;2023-04-07T11:05:48;10.30;99.90
52495;DHT22;38405;53.212;5.660;2023-04-07T11:08:14;10.40;99.90
52495;DHT22;38405;53.212;5.660;2023-04-07T11:10:46;10.60;99.90
52495;DHT22;38405;53.212;5.660;2023-04-07T11:13:12;10.80;99.90
52495;DHT22;38405;53.212;5.660;2023-04-07T11:15:38;10.90;99.90
52495;DHT22;38405;53.212;5.660;2023-04-07T11:18:09;11.00;99.90
52495;DHT22;38405;53.212;5.660;2023-04-07T11:20:55;11.20;99.90
52495;DHT22;38405;53.212;5.660;2023-04-07T11:23:24;11.30;99.90
52495;DHT22;38405;53.212;5.660;2023-04-07T11:25:53;11.00;99.90
52495;DHT22;38405;53.212;5.660;2023-04-07T11:28:23;11.10;99.90
52495;DHT22;38405;53.212;5.660;2023-04-07T11:30:51;11.20;99.90
52495;DHT22;38405;53.212;5.660;2023-04-07T11:33:35;11.20;99.90
52495;DHT22;38405;53.212;5.660;2023-04-07T11:36:04;11.30;99.90
52495;DHT22;38405;53.212;5.660;2023-04-07T11:38:37;11.30;99.90
52495;DHT22;38405;53.212;5.660;2023-04-07T11:41:11;11.50;99.90
52495;DHT22;38405;53.212;5.660;2023-04-07T11:43:37;11.40;99.90
52495;DHT22;38405;53.212;5.660;2023-04-07T11:46:15;11.40;99.90
52495;DHT22;38405;53.212;5.660;2023-04-07T11:48:43;11.40;99.90
52495;DHT22;38405;53.212;5.660;2023-04-07T11:51:20;11.40;99.90
52495;DHT22;38405;53.212;5.660;2023-04-07T11:53:54;11.40;99.90
52495;DHT22;38405;53.212;5.660;2023-04-07T11:56:20;11.40;99.90
52495;DHT22;38405;53.212;5.660;2023-04-07T11:58:54;11.40;99.90
52495;DHT22;38405;53.212;5.660;2023-04-07T12:01:21;11.50;99.90
52495;DHT22;38405;53.212;5.660;2023-04-07T12:04:02;11.50;99.90
52495;DHT22;38405;53.212;5.660;2023-04-07T12:06:29;11.50;99.90
52495;DHT22;38405;53.212;5.660;2023-04-07T12:08:56;11.50;99.90
52495;DHT22;38405;53.212;5.660;2023-04-07T12:11:21;11.40;99.90
52495;DHT22;38405;53.212;5.660;2023-04-07T12:13:47;11.60;99.90
52495;DHT22;38405;53.212;5.660;2023-04-07T12:16:13;11.60;99.90
52495;DHT22;38405;53.212;5.660;2023-04-07T12:18:39;11.60;99.90
52495;DHT22;38405;53.212;5.660;2023-04-07T12:21:05;11.80;99.90
52495;DHT22;38405;53.212;5.660;2023-04-07T12:23:30;11.80;99.90
52495;DHT22;38405;53.212;5.660;2023-04-07T12:25:56;11.80;99.90
52495;DHT22;38405;53.212;5.660;2023-04-07T12:28:22;11.70;99.90
52495;DHT22;38405;53.212;5.660;2023-04-07T12:30:47;11.70;99.90
52495;DHT22;38405;53.212;5.660;2023-04-07T12:33:13;11.60;99.90
52495;DHT22;38405;53.212;5.660;2023-04-07T12:35:39;11.50;99.90
52495;DHT22;38405;53.212;5.660;2023-04-07T12:38:04;11.50;99.90
52495;DHT22;38405;53.212;5.660;2023-04-07T12:40:30;11.40;99.90
52495;DHT22;38405;53.212;5.660;2023-04-07T12:42:56;11.40;99.90
52495;DHT22;38405;53.212;5.660;2023-04-07T12:45:25;11.40;99.90
52495;DHT22;38405;53.212;5.660;2023-04-07T12:47:51;11.50;99.90
52495;DHT22;38405;53.212;5.660;2023-04-07T12:50:16;11.30;99.90
52495;DHT22;38405;53.212;5.660;2023-04-07T12:52:42;11.30;99.90
52495;DHT22;38405;53.212;5.660;2023-04-07T12:55:08;11.30;99.90
52495;DHT22;38405;53.212;5.660;2023-04-07T12:57:33;11.30;99.90
52495;DHT22;38405;53.212;5.660;2023-04-07T12:59:59;11.20;99.90
52495;DHT22;38405;53.212;5.660;2023-04-07T13:02:24;11.30;99.90
52495;DHT22;38405;53.212;5.660;2023-04-07T13:04:51;11.10;99.90
52495;DHT22;38405;53.212;5.660;2023-04-07T13:07:16;11.10;99.90
52495;DHT22;38405;53.212;5.660;2023-04-07T13:09:42;11.10;99.90
52495;DHT22;38405;53.212;5.660;2023-04-07T13:12:11;11.00;99.90
52495;DHT22;38405;53.212;5.660;2023-04-07T13:14:40;11.00;99.90
52495;DHT22;38405;53.212;5.660;2023-04-07T13:17:07;11.00;99.90
52495;DHT22;38405;53.212;5.660;2023-04-07T13:19:33;11.00;99.90
52495;DHT22;38405;53.212;5.660;2023-04-07T13:21:59;10.90;99.90
52495;DHT22;38405;53.212;5.660;2023-04-07T13:24:25;10.90;99.90
52495;DHT22;38405;53.212;5.660;2023-04-07T13:26:52;10.80;99.90
52495;DHT22;38405;53.212;5.660;2023-04-07T13:29:17;10.70;99.90
52495;DHT22;38405;53.212;5.660;2023-04-07T13:31:47;10.60;99.90
52495;DHT22;38405;53.212;5.660;2023-04-07T13:34:13;10.70;99.90
52495;DHT22;38405;53.212;5.660;2023-04-07T13:36:40;10.60;99.90
52495;DHT22;38405;53.212;5.660;2023-04-07T13:39:06;10.60;99.90
52495;DHT22;38405;53.212;5.660;2023-04-07T13:41:32;10.70;99.90
52495;DHT22;38405;53.212;5.660;2023-04-07T13:43:58;10.70;99.90
52495;DHT22;38405;53.212;5.660;2023-04-07T13:46:25;10.80;99.90
52495;DHT22;38405;53.212;5.660;2023-04-07T13:48:51;10.90;99.90
52495;DHT22;38405;53.212;5.660;2023-04-07T13:51:17;10.90;99.90
52495;DHT22;38405;53.212;5.660;2023-04-07T13:53:43;11.00;99.90
52495;DHT22;38405;53.212;5.660;2023-04-07T13:56:08;11.10;99.90
52495;DHT22;38405;53.212;5.660;2023-04-07T13:58:35;11.00;99.90
52495;DHT22;38405;53.212;5.660;2023-04-07T14:01:02;11.00;99.90
52495;DHT22;38405;53.212;5.660;2023-04-07T14:03:28;11.00;99.90
52495;DHT22;38405;53.212;5.660;2023-04-07T14:05:54;11.10;99.90
52495;DHT22;38405;53.212;5.660;2023-04-07T14:08:20;11.10;99.90
52495;DHT22;38405;53.212;5.660;2023-04-07T14:10:48;11.10;99.90
52495;DHT22;38405;53.212;5.660;2023-04-07T14:13:14;11.10;99.90
52495;DHT22;38405;53.212;5.660;2023-04-07T14:15:40;11.10;99.90
52495;DHT22;38405;53.212;5.660;2023-04-07T14:18:06;11.20;99.90
52495;DHT22;38405;53.212;5.660;2023-04-07T14:20:32;11.20;99.90
52495;DHT22;38405;53.212;5.660;2023-04-07T14:22:58;11.30;99.90
52495;DHT22;38405;53.212;5.660;2023-04-07T14:25:23;11.30;99.90
52495;DHT22;38405;53.212;5.660;2023-04-07T14:27:50;11.30;99.90
52495;DHT22;38405;53.212;5.660;2023-04-07T14:30:16;11.20;99.90
52495;DHT22;38405;53.212;5.660;2023-04-07T14:32:42;11.30;99.90
52495;DHT22;38405;53.212;5.660;2023-04-07T14:35:08;11.40;99.90
52495;DHT22;38405;53.212;5.660;2023-04-07T14:37:34;11.30;99.90
52495;DHT22;38405;53.212;5.660;2023-04-07T14:40:01;11.30;99.90
52495;DHT22;38405;53.212;5.660;2023-04-07T14:42:28;11.30;99.90
52495;DHT22;38405;53.212;5.660;2023-04-07T14:44:58;11.30;99.90
52495;DHT22;38405;53.212;5.660;2023-04-07T14:47:24;11.30;99.90
52495;DHT22;38405;53.212;5.660;2023-04-07T14:49:51;11.20;99.90
52495;DHT22;38405;53.212;5.660;2023-04-07T14:52:16;11.10;99.90
52495;DHT22;38405;53.212;5.660;2023-04-07T14:54:42;11.10;99.90
52495;DHT22;38405;53.212;5.660;2023-04-07T14:57:08;11.30;99.90
52495;DHT22;38405;53.212;5.660;2023-04-07T14:59:33;11.30;99.90
52495;DHT22;38405;53.212;5.660;2023-04-07T15:01:59;11.50;99.90
52495;DHT22;38405;53.212;5.660;2023-04-07T15:04:25;11.50;99.90
52495;DHT22;38405;53.212;5.660;2023-04-07T15:06:51;11.60;99.90
52495;DHT22;38405;53.212;5.660;2023-04-07T15:09:16;11.70;99.90
52495;DHT22;38405;53.212;5.660;2023-04-07T15:11:43;11.80;99.90
52495;DHT22;38405;53.212;5.660;2023-04-07T15:14:10;11.80;99.90
52495;DHT22;38405;53.212;5.660;2023-04-07T15:16:36;11.90;99.90
52495;DHT22;38405;53.212;5.660;2023-04-07T15:19:01;11.80;99.90
52495;DHT22;38405;53.212;5.660;2023-04-07T15:21:27;11.80;99.90
52495;DHT22;38405;53.212;5.660;2023-04-07T15:23:53;11.70;99.90
52495;DHT22;38405;53.212;5.660;2023-04-07T15:26:18;11.60;99.90
52495;DHT22;38405;53.212;5.660;2023-04-07T15:28:44;11.60;99.90
52495;DHT22;38405;53.212;5.660;2023-04-07T15:31:12;11.50;99.90
52495;DHT22;38405;53.212;5.660;2023-04-07T15:33:39;11.50;99.90
52495;DHT22;38405;53.212;5.660;2023-04-07T15:36:06;11.60;99.90
52495;DHT22;38405;53.212;5.660;2023-04-07T15:38:32;11.70;99.90
52495;DHT22;38405;53.212;5.660;2023-04-07T15:40:58;11.70;99.90
52495;DHT22;38405;53.212;5.660;2023-04-07T15:43:24;11.80;99.90
52495;DHT22;38405;53.212;5.660;2023-04-07T15:45:50;11.80;99.90
52495;DHT22;38405;53.212;5.660;2023-04-07T15:48:16;11.80;99.90
52495;DHT22;38405;53.212;5.660;2023-04-07T15:50:42;11.70;99.90
52495;DHT22;38405;53.212;5.660;2023-04-07T15:53:08;11.70;99.90
52495;DHT22;38405;53.212;5.660;2023-04-07T15:55:34;11.60;99.90
52495;DHT22;38405;53.212;5.660;2023-04-07T15:58:01;11.50;99.90
52495;DHT22;38405;53.212;5.660;2023-04-07T16:00:27;11.50;99.90
52495;DHT22;38405;53.212;5.660;2023-04-07T16:02:53;11.50;99.90